Time;durP1;ratioP1;P1;durP2;ratioP2;P2;SDS_P1;SDS_P2;PMS_P1;PMS_P2;Temp;Humidity;BMP_temperature;BMP_pressure;BME280_temperature;BME280_humidity;BME280_pressure;Samples;Min_cycle;Max_cycle;Signal;HPM_P1;HPM_P2
2022/09/01 04:00:34;;;;;;;2.70;2.47;;;10.40;96.30;;;;;;6063191;23;21572;31
2022/09/01 04:03:01;;;;;;;2.97;2.13;;;10.30;96.30;;;;;;4942301;29;20476;-76
2022/09/01 04:05:29;;;;;;;4.07;2.50;;;10.20;96.30;;;;;;4943419;29;20434;-75
2022/09/01 04:07:56;;;;;;;4.17;2.27;;;10.20;96.30;;;;;;4946698;29;20424;-75
2022/09/01 04:10:22;;;;;;;3.77;2.37;;;10.30;96.30;;;;;;4937626;29;20427;-76
2022/09/01 04:12:48;;;;;;;9.83;2.83;;;10.30;96.30;;;;;;4954615;29;20801;-75
2022/09/01 04:15:15;;;;;;;5.80;2.20;;;10.30;96.30;;;;;;4953324;29;20234;-76
2022/09/01 04:20:26;;;;;;;3.90;2.10;;;10.30;96.30;;;;;;4935304;29;21017;-75
2022/09/01 04:22:51;;;;;;;3.87;2.47;;;10.30;96.30;;;;;;4935357;29;20447;-77
2022/09/01 04:25:22;;;;;;;6.40;2.40;;;10.20;96.30;;;;;;4918646;29;20179;-75
2022/09/01 04:27:55;;;;;;;4.43;2.43;;;10.20;96.30;;;;;;4935238;29;20176;-78
2022/09/01 04:30:25;;;;;;;3.80;2.53;;;10.20;96.30;;;;;;4922966;29;20435;-75
2022/09/01 04:32:54;;;;;;;5.80;2.20;;;10.20;96.30;;;;;;4954184;29;20458;-76
2022/09/01 04:35:26;;;;;;;1.90;1.80;;;10.20;96.30;;;;;;4945259;29;20483;-76
2022/09/01 04:37:52;;;;;;;4.70;2.60;;;10.20;96.30;;;;;;4934894;29;20392;-78
2022/09/01 04:40:22;;;;;;;2.17;1.97;;;10.20;96.30;;;;;;4939065;29;20450;-76
2022/09/01 04:42:48;;;;;;;5.77;2.23;;;10.20;96.30;;;;;;4954575;28;20428;-76
2022/09/01 04:45:14;;;;;;;5.33;2.00;;;10.20;96.30;;;;;;4939133;29;20415;-75
2022/09/01 04:47:41;;;;;;;2.80;2.00;;;10.20;96.30;;;;;;4955690;29;20539;-76
2022/09/01 04:50:16;;;;;;;3.63;2.23;;;10.20;96.30;;;;;;4954524;28;20419;-77
2022/09/01 04:52:44;;;;;;;1.97;1.83;;;10.20;96.30;;;;;;4943055;29;20418;-75
2022/09/01 04:55:16;;;;;;;2.17;1.90;;;10.30;96.30;;;;;;4954435;28;20417;-75
2022/09/01 04:57:46;;;;;;;5.40;2.23;;;10.40;96.30;;;;;;4955147;29;20772;-75
2022/09/01 05:00:22;;;;;;;2.70;2.20;;;10.50;96.30;;;;;;4954322;29;20445;-76
2022/09/01 05:02:54;;;;;;;3.63;2.30;;;10.50;96.30;;;;;;4954394;29;20415;-75
2022/09/01 05:05:21;;;;;;;3.47;2.50;;;10.50;96.30;;;;;;4954144;28;20419;-75
2022/09/01 05:07:51;;;;;;;3.20;2.33;;;10.60;96.30;;;;;;4934715;29;20927;-78
2022/09/01 05:10:18;;;;;;;5.00;2.70;;;10.60;96.30;;;;;;4951680;29;20494;-75
2022/09/01 05:12:44;;;;;;;2.03;1.83;;;10.60;96.30;;;;;;4957278;29;20421;-75
2022/09/01 05:15:12;;;;;;;2.53;2.10;;;10.70;96.30;;;;;;4957214;29;20481;-75
2022/09/01 05:17:39;;;;;;;2.53;2.10;;;10.70;96.30;;;;;;4956401;29;20417;-76
2022/09/01 05:20:06;;;;;;;9.17;2.23;;;10.80;96.30;;;;;;4954528;28;20452;-75
2022/09/01 05:22:32;;;;;;;2.97;1.80;;;10.80;96.30;;;;;;4954091;29;20540;-76
2022/09/01 05:25:10;;;;;;;4.80;2.13;;;10.80;96.30;;;;;;4953855;29;20923;-77
2022/09/01 05:27:38;;;;;;;3.50;1.73;;;10.80;96.30;;;;;;4953691;29;20517;-76
2022/09/01 05:30:07;;;;;;;2.10;1.90;;;10.80;96.30;;;;;;4953396;29;20415;-75
2022/09/01 05:32:35;;;;;;;3.87;1.83;;;10.80;96.30;;;;;;4953660;28;20473;-76
2022/09/01 05:35:05;;;;;;;1.80;1.63;;;10.80;96.30;;;;;;4953736;29;20410;-76
2022/09/01 05:37:31;;;;;;;3.97;2.00;;;10.80;96.30;;;;;;4953752;28;20419;-76
2022/09/01 05:39:57;;;;;;;2.13;1.93;;;10.90;96.30;;;;;;4953120;28;20494;-76
2022/09/01 05:42:23;;;;;;;3.00;1.60;;;10.90;96.30;;;;;;4936386;29;20636;-75
2022/09/01 05:44:49;;;;;;;3.47;2.00;;;11.00;96.30;;;;;;4960292;28;20746;-76
2022/09/01 05:47:15;;;;;;;2.20;2.00;;;11.00;96.30;;;;;;4963458;28;20971;-77
2022/09/01 05:49:40;;;;;;;2.83;2.17;;;11.20;96.30;;;;;;4952351;29;20209;-77
2022/09/01 05:54:41;;;;;;;5.53;2.03;;;11.30;96.30;;;;;;5734950;23;20227;-78
2022/09/01 05:57:06;;;;;;;3.47;2.20;;;11.40;96.30;;;;;;5031860;28;20772;-76
2022/09/01 05:59:32;;;;;;;5.80;2.23;;;11.50;96.30;;;;;;5031357;28;20211;-77
2022/09/01 06:01:59;;;;;;;3.90;2.20;;;11.60;96.30;;;;;;4999071;28;20199;-78
2022/09/01 06:04:25;;;;;;;4.90;2.03;;;11.60;96.30;;;;;;5012005;28;20260;-78
2022/09/01 06:06:52;;;;;;;3.60;2.60;;;11.80;96.30;;;;;;5013202;28;20498;-77
2022/09/01 06:09:18;;;;;;;2.80;2.10;;;12.00;96.30;;;;;;5015363;28;20412;-77
2022/09/01 06:11:45;;;;;;;8.37;2.53;;;12.10;96.30;;;;;;5015554;28;20451;-76
2022/09/01 06:14:15;;;;;;;4.23;2.40;;;12.00;96.30;;;;;;5015526;28;20419;-78
2022/09/01 06:16:41;;;;;;;2.93;2.00;;;12.30;96.30;;;;;;4997906;28;20434;-78
2022/09/01 06:19:07;;;;;;;3.97;2.10;;;12.60;96.30;;;;;;5015223;28;20508;-77
2022/09/01 06:21:33;;;;;;;5.00;2.30;;;12.90;96.30;;;;;;5015396;28;20767;-78
2022/09/01 06:23:58;;;;;;;3.13;2.37;;;13.50;96.30;;;;;;5015399;28;20422;-78
2022/09/01 06:26:33;;;;;;;2.43;2.23;;;14.70;96.30;;;;;;5015494;28;20173;-77
2022/09/01 06:29:06;;;;;;;2.60;1.70;;;16.10;96.30;;;;;;4997418;28;20191;-77
2022/09/01 06:31:37;;;;;;;3.47;1.60;;;17.60;96.30;;;;;;5015154;28;20427;-77
2022/09/01 06:34:04;;;;;;;1.70;1.50;;;18.70;96.30;;;;;;5015103;28;20934;-77
2022/09/01 06:36:35;;;;;;;2.43;1.40;;;19.70;96.30;;;;;;5015098;28;20412;-77
2022/09/01 06:39:02;;;;;;;1.60;1.20;;;19.70;96.30;;;;;;5014753;28;20451;-77
2022/09/01 06:41:29;;;;;;;4.43;1.40;;;19.70;96.30;;;;;;5002414;28;20979;-77
2022/09/01 06:43:55;;;;;;;1.93;1.40;;;19.40;96.30;;;;;;4995290;28;20463;-77
2022/09/01 06:46:22;;;;;;;2.53;1.40;;;18.80;96.30;;;;;;4995386;28;20889;-77
2022/09/01 06:48:48;;;;;;;2.73;1.50;;;18.40;96.30;;;;;;4995101;28;20634;-78
2022/09/01 06:51:17;;;;;;;3.53;2.90;;;18.10;96.30;;;;;;4995207;28;20429;-78
2022/09/01 06:53:44;;;;;;;5.57;2.03;;;18.30;96.30;;;;;;4995218;28;20885;-78
2022/09/01 06:56:12;;;;;;;2.47;1.80;;;18.40;96.30;;;;;;4994924;28;20444;-75
2022/09/01 06:58:40;;;;;;;3.00;1.73;;;18.40;96.30;;;;;;4994881;28;20413;-75
2022/09/01 07:01:14;;;;;;;2.77;1.50;;;18.90;96.30;;;;;;4994946;28;20512;-74
2022/09/01 07:03:41;;;;;;;3.70;1.90;;;20.00;96.30;;;;;;4995212;28;20389;-75
2022/09/01 07:06:09;;;;;;;4.97;1.47;;;20.60;96.30;;;;;;4994914;28;20449;-74
2022/09/01 07:08:38;;;;;;;2.27;1.97;;;20.40;96.30;;;;;;4977562;28;20417;-75
2022/09/01 07:11:06;;;;;;;2.87;1.90;;;19.70;96.30;;;;;;4996633;28;20435;-75
2022/09/01 07:13:34;;;;;;;3.10;1.93;;;20.00;96.30;;;;;;5014553;28;20416;-74
2022/09/01 07:16:00;;;;;;;3.30;2.00;;;21.20;96.30;;;;;;5014432;28;20411;-77
2022/09/01 07:18:27;;;;;;;2.13;1.73;;;22.10;96.30;;;;;;5013599;28;20403;-76
2022/09/01 07:20:54;;;;;;;5.73;3.97;;;22.90;96.30;;;;;;5014339;28;20487;-75
2022/09/01 07:23:20;;;;;;;2.60;1.90;;;23.20;96.30;;;;;;5014249;28;20415;-75
2022/09/01 07:25:47;;;;;;;6.27;1.80;;;23.10;96.30;;;;;;5014308;28;20468;-75
2022/09/01 07:28:15;;;;;;;3.80;2.17;;;23.20;96.30;;;;;;5014040;28;20754;-75
2022/09/01 07:30:44;;;;;;;6.70;2.17;;;23.50;96.30;;;;;;5013995;28;20564;-77
2022/09/01 07:33:11;;;;;;;4.10;2.20;;;23.90;96.30;;;;;;5013982;28;20430;-75
2022/09/01 07:35:38;;;;;;;3.00;2.20;;;23.70;96.30;;;;;;5014248;28;20445;-75
2022/09/01 07:38:06;;;;;;;3.37;2.00;;;23.50;96.30;;;;;;4996468;28;20427;-75
2022/09/01 07:40:35;;;;;;;5.40;2.00;;;23.20;96.30;;;;;;5009079;28;20503;-76
2022/09/01 07:43:03;;;;;;;3.23;1.63;;;23.40;96.30;;;;;;4994365;28;20432;-78
2022/09/01 07:45:29;;;;;;;4.70;1.97;;;23.40;94.20;;;;;;4994236;28;20416;-76
2022/09/01 07:47:58;;;;;;;3.43;1.80;;;23.20;95.00;;;;;;4994100;28;20734;-78
2022/09/01 07:50:27;;;;;;;2.70;2.20;;;23.60;93.90;;;;;;4994454;28;20169;-76
2022/09/01 07:52:53;;;;;;;2.97;1.90;;;24.30;94.90;;;;;;4994288;28;20831;-78
2022/09/01 07:55:19;;;;;;;4.43;2.27;;;24.90;94.10;;;;;;4994200;28;20443;-75
2022/09/01 07:57:45;;;;;;;5.73;1.90;;;24.90;93.60;;;;;;4994274;28;20181;-75
2022/09/01 08:00:13;;;;;;;4.50;1.60;;;25.70;91.90;;;;;;4993882;28;20694;-76
2022/09/01 08:02:39;;;;;;;3.83;1.53;;;24.90;88.50;;;;;;4994166;28;20177;-76
2022/09/01 08:05:07;;;;;;;1.87;1.60;;;25.40;89.10;;;;;;4994099;28;20409;-76
2022/09/01 08:07:33;;;;;;;3.70;1.83;;;25.50;91.00;;;;;;4994321;28;20412;-76
2022/09/01 08:09:59;;;;;;;2.80;1.73;;;26.20;87.20;;;;;;4994878;28;20451;-76
2022/09/01 08:12:24;;;;;;;7.43;2.70;;;25.70;87.60;;;;;;4994139;28;20557;-76
2022/09/01 08:14:52;;;;;;;2.90;1.50;;;25.90;87.10;;;;;;4993793;28;20231;-79
2022/09/01 08:17:18;;;;;;;3.40;1.60;;;25.60;90.10;;;;;;4995292;28;20200;-76
2022/09/01 08:19:45;;;;;;;4.03;1.70;;;26.70;86.40;;;;;;5016051;28;20474;-84
2022/09/01 08:22:11;;;;;;;6.10;1.70;;;26.70;84.40;;;;;;5019053;28;20421;-82
2022/09/01 08:24:37;;;;;;;1.90;1.30;;;26.70;84.80;;;;;;5000571;28;20467;-76
2022/09/01 08:27:03;;;;;;;5.53;2.23;;;26.70;83.00;;;;;;5007755;28;20642;-76
2022/09/01 08:29:28;;;;;;;16.40;4.27;;;27.10;79.60;;;;;;4992912;28;20169;-76
2022/09/01 08:31:54;;;;;;;2.97;1.60;;;27.00;80.20;;;;;;4993653;28;20424;-75
2022/09/01 08:34:19;;;;;;;2.90;1.60;;;27.30;79.90;;;;;;4976212;28;20645;-75
2022/09/01 08:36:45;;;;;;;1.93;1.23;;;26.70;79.80;;;;;;4993540;28;20239;-75
2022/09/01 08:39:10;;;;;;;1.50;1.00;;;26.70;78.50;;;;;;4993369;28;20204;-78
2022/09/01 08:42:10;;;;;;;1.50;1.00;;;26.10;79.50;;;;;;4993461;28;20280;-74
2022/09/01 08:44:53;;;;;;;6.13;1.20;;;24.90;79.80;;;;;;4993499;28;20522;-75
2022/09/01 08:47:19;;;;;;;2.60;1.00;;;25.10;80.30;;;;;;4993506;28;20408;-75
2022/09/01 08:49:46;;;;;;;2.30;1.07;;;24.70;78.90;;;;;;4993485;28;20416;-74
2022/09/01 08:52:29;;;;;;;3.33;1.20;;;23.00;83.20;;;;;;4993552;28;20197;-75
2022/09/01 08:55:00;;;;;;;2.40;1.33;;;23.00;82.20;;;;;;4993462;28;20947;-74
2022/09/01 08:57:36;;;;;;;1.80;1.00;;;23.00;82.40;;;;;;4993358;28;20401;-75
2022/09/01 09:00:03;;;;;;;3.10;1.07;;;23.40;82.90;;;;;;4992702;28;20838;-77
2022/09/01 09:02:39;;;;;;;3.00;1.50;;;22.80;82.60;;;;;;4993054;28;20429;-74
2022/09/01 09:05:21;;;;;;;3.37;1.10;;;22.80;82.90;;;;;;4992980;28;20415;-75
2022/09/01 09:08:12;;;;;;;9.83;1.40;;;23.30;82.20;;;;;;4993389;28;20389;-81
2022/09/01 09:10:54;;;;;;;3.10;1.20;;;22.90;83.10;;;;;;4992796;28;20428;-75
2022/09/01 09:13:28;;;;;;;3.10;1.10;;;22.10;79.70;;;;;;4992788;28;20485;-74
2022/09/01 09:16:02;;;;;;;4.17;1.33;;;21.00;86.50;;;;;;4992934;28;20409;-75
2022/09/01 09:18:38;;;;;;;1.83;1.00;;;20.60;87.40;;;;;;4992737;28;21088;-74
2022/09/01 09:21:21;;;;;;;1.87;1.00;;;20.40;89.40;;;;;;4992840;28;20468;-74
2022/09/01 09:23:55;;;;;;;2.20;1.03;;;20.30;89.90;;;;;;4992920;28;20759;-74
2022/09/01 09:26:21;;;;;;;3.30;1.10;;;20.20;86.30;;;;;;4992811;28;20389;-75
2022/09/01 09:28:48;;;;;;;2.40;1.20;;;20.30;87.20;;;;;;4992444;28;20744;-77
2022/09/01 09:31:47;;;;;;;3.73;1.10;;;20.40;85.80;;;;;;4992604;28;20181;-74
2022/09/01 09:34:26;;;;;;;4.00;1.07;;;20.20;84.70;;;;;;4992534;28;20392;-77
2022/09/01 09:36:52;;;;;;;2.57;1.10;;;20.20;82.60;;;;;;4992676;28;20416;-74
2022/09/01 09:39:18;;;;;;;2.83;1.33;;;20.20;84.90;;;;;;4992282;28;20456;-74
2022/09/01 09:42:07;;;;;;;2.17;1.40;;;19.90;87.20;;;;;;5009791;28;20263;-74
2022/09/01 09:44:40;;;;;;;2.60;0.90;;;19.70;87.90;;;;;;5016217;28;20406;-77
2022/09/01 09:47:05;;;;;;;4.03;1.60;;;19.50;85.40;;;;;;5016265;28;20384;-75
2022/09/01 09:49:33;;;;;;;9.40;1.23;;;19.10;96.30;;;;;;5015931;28;20746;-74
2022/09/01 09:52:01;;;;;;;9.00;1.60;;;18.80;96.30;;;;;;5016115;28;20268;-74
2022/09/01 09:54:28;;;;;;;2.23;1.30;;;18.30;96.30;;;;;;5015915;28;20438;-74
2022/09/01 09:57:10;;;;;;;2.60;1.50;;;18.10;96.30;;;;;;5015888;28;20978;-74
2022/09/01 09:59:47;;;;;;;13.00;2.37;;;18.10;96.30;;;;;;4998081;28;20517;-76
2022/09/01 10:02:29;;;;;;;3.40;1.20;;;18.10;96.30;;;;;;5015867;28;20430;-74
2022/09/01 10:04:56;;;;;;;2.40;1.53;;;18.20;96.30;;;;;;5016018;28;20878;-74
2022/09/01 10:07:36;;;;;;;2.63;1.50;;;18.10;96.30;;;;;;5015841;28;20957;-74
2022/09/01 10:10:23;;;;;;;4.03;1.80;;;18.10;96.30;;;;;;5015569;28;20423;-77
2022/09/01 10:12:51;;;;;;;4.90;1.50;;;18.10;96.30;;;;;;5015546;28;20418;-74
2022/09/01 10:15:19;;;;;;;4.23;1.40;;;18.10;96.30;;;;;;5015549;28;20442;-74
2022/09/01 10:17:46;;;;;;;4.43;1.77;;;18.20;96.30;;;;;;5015582;28;20420;-75
2022/09/01 10:20:16;;;;;;;2.60;1.13;;;18.40;96.30;;;;;;5015060;28;20455;-74
2022/09/01 10:22:42;;;;;;;1.83;1.20;;;18.50;96.30;;;;;;5015570;28;20407;-74
2022/09/01 10:25:15;;;;;;;5.80;1.37;;;18.70;96.30;;;;;;5015465;28;20407;-74
2022/09/01 10:27:46;;;;;;;6.03;1.70;;;19.10;96.30;;;;;;5015398;28;20160;-74
2022/09/01 10:30:21;;;;;;;2.50;1.07;;;19.30;96.30;;;;;;5015222;28;20758;-74
2022/09/01 10:32:48;;;;;;;5.20;1.53;;;19.70;96.30;;;;;;5015403;28;21090;-74
2022/09/01 10:35:33;;;;;;;5.47;1.90;;;19.90;96.30;;;;;;4997557;28;20443;-74
2022/09/01 10:38:05;;;;;;;5.17;1.37;;;20.50;96.30;;;;;;5015039;28;20408;-74
2022/09/01 10:40:39;;;;;;;4.00;1.30;;;20.30;96.30;;;;;;5010217;28;20499;-76
2022/09/01 10:43:33;;;;;;;3.67;1.40;;;20.00;96.30;;;;;;4995606;28;20444;-76
2022/09/01 10:45:58;;;;;;;3.57;1.47;;;19.60;96.30;;;;;;4995488;28;21013;-74
2022/09/01 10:48:32;;;;;;;4.67;1.93;;;19.40;96.30;;;;;;4995259;28;20503;-75
2022/09/01 10:51:13;;;;;;;6.17;1.40;;;19.40;96.30;;;;;;4995306;28;20205;-74
2022/09/01 10:53:44;;;;;;;2.93;1.37;;;19.20;96.30;;;;;;4994551;28;20496;-74
2022/09/01 10:56:37;;;;;;;3.93;1.30;;;19.20;96.30;;;;;;4995039;28;20429;-75
2022/09/01 10:59:24;;;;;;;10.63;1.93;;;19.20;96.30;;;;;;4994940;28;20491;-74
2022/09/01 11:01:49;;;;;;;2.80;1.17;;;19.30;96.30;;;;;;4995087;28;20787;-74
2022/09/01 11:04:20;;;;;;;6.43;1.80;;;19.50;96.30;;;;;;4995144;28;20425;-74
2022/09/01 11:07:05;;;;;;;6.40;1.03;;;19.60;96.30;;;;;;4995106;28;20185;-75
2022/09/01 11:09:44;;;;;;;3.33;1.30;;;19.90;96.30;;;;;;4994915;28;20803;-74
2022/09/01 11:12:23;;;;;;;3.77;1.20;;;20.30;96.30;;;;;;4994972;28;20436;-77
2022/09/01 11:15:14;;;;;;;9.60;1.43;;;20.60;96.00;;;;;;4995010;28;20416;-76
2022/09/01 11:17:49;;;;;;;6.70;1.30;;;20.40;95.50;;;;;;4967032;28;20429;-74
2022/09/01 11:20:35;;;;;;;3.77;1.20;;;20.90;91.60;;;;;;4994601;28;20558;-76
2022/09/01 11:23:21;;;;;;;5.97;1.43;;;21.20;93.00;;;;;;4994797;28;20409;-75
2022/09/01 11:26:01;;;;;;;3.20;1.00;;;20.90;91.10;;;;;;4994821;28;20455;-75
2022/09/01 11:28:27;;;;;;;2.83;1.50;;;20.90;92.90;;;;;;4994575;28;20880;-75
2022/09/01 11:31:04;;;;;;;2.10;1.07;;;20.70;89.60;;;;;;4994649;28;20448;-75
2022/09/01 11:33:43;;;;;;;1.30;0.90;;;20.90;87.80;;;;;;4994703;28;20181;-75
2022/09/01 11:36:25;;;;;;;1.63;1.10;;;20.80;87.00;;;;;;4994592;28;20497;-75
2022/09/01 11:39:02;;;;;;;4.87;1.30;;;21.20;87.70;;;;;;4994070;28;20417;-75
2022/09/01 11:41:34;;;;;;;1.50;1.00;;;21.30;86.50;;;;;;4989116;28;20436;-75
2022/09/01 11:44:03;;;;;;;3.27;1.23;;;21.40;87.30;;;;;;5013907;28;20423;-75
2022/09/01 11:46:31;;;;;;;1.47;1.00;;;21.50;85.00;;;;;;5013957;28;20408;-75
2022/09/01 11:49:07;;;;;;;2.13;1.40;;;21.20;86.10;;;;;;5014682;28;20499;-77
2022/09/01 11:51:47;;;;;;;2.03;1.17;;;21.30;85.90;;;;;;5246038;23;20487;-77
2022/09/01 11:54:14;;;;;;;4.97;1.30;;;21.40;85.90;;;;;;5016331;28;20451;-77
2022/09/01 11:56:39;;;;;;;2.53;1.10;;;20.90;85.20;;;;;;4998881;28;20819;-77
2022/09/01 11:59:05;;;;;;;5.73;1.00;;;20.50;83.40;;;;;;5017428;28;20443;-77
2022/09/01 12:01:34;;;;;;;2.00;1.17;;;20.50;83.90;;;;;;5018894;28;20627;-77
2022/09/01 12:04:21;;;;;;;8.70;1.10;;;20.60;85.60;;;;;;5018071;28;20264;-78
2022/09/01 12:06:53;;;;;;;4.30;1.20;;;20.80;88.10;;;;;;5017320;28;20412;-77
2022/09/01 12:09:18;;;;;;;2.40;1.20;;;21.10;85.80;;;;;;5000245;28;20424;-77
2022/09/01 12:11:44;;;;;;;2.50;1.30;;;21.10;86.40;;;;;;5017723;28;20442;-78
2022/09/01 12:14:18;;;;;;;1.53;0.90;;;21.00;85.10;;;;;;5018009;28;20632;-78
2022/09/01 12:16:54;;;;;;;1.97;1.30;;;20.70;85.90;;;;;;5016605;28;20188;-77
2022/09/01 12:19:26;;;;;;;5.57;1.30;;;20.60;89.00;;;;;;5017505;28;20462;-77
2022/09/01 12:22:02;;;;;;;5.07;1.20;;;20.50;88.40;;;;;;5018913;28;20446;-77
2022/09/01 12:24:34;;;;;;;6.70;0.97;;;20.50;87.60;;;;;;5018279;28;20415;-77
2022/09/01 12:27:00;;;;;;;2.60;1.67;;;20.40;87.30;;;;;;5018358;28;20798;-77
2022/09/01 12:29:27;;;;;;;2.33;1.40;;;20.40;86.90;;;;;;5016965;28;20487;-77
2022/09/01 12:31:53;;;;;;;1.57;1.10;;;20.00;87.80;;;;;;5016930;28;20451;-77
2022/09/01 12:34:35;;;;;;;2.37;1.00;;;19.80;87.70;;;;;;5016206;28;20418;-76
2022/09/01 12:37:17;;;;;;;1.53;1.10;;;20.00;89.10;;;;;;5015276;28;20416;-77
2022/09/01 12:39:46;;;;;;;1.93;1.37;;;19.90;88.20;;;;;;5014503;28;20550;-77
2022/09/01 12:42:18;;;;;;;2.77;1.40;;;19.90;88.00;;;;;;4996444;28;20436;-77
2022/09/01 12:44:47;;;;;;;2.20;1.10;;;20.10;87.40;;;;;;4995232;28;20440;-78
2022/09/01 12:47:32;;;;;;;2.60;0.90;;;20.40;87.70;;;;;;4995876;28;20901;-77
2022/09/01 12:49:59;;;;;;;5.67;1.50;;;20.50;86.90;;;;;;4977450;28;20939;-77
2022/09/01 12:52:30;;;;;;;2.07;1.40;;;20.50;89.10;;;;;;4994563;28;20452;-77
2022/09/01 12:54:58;;;;;;;3.00;1.03;;;20.60;88.60;;;;;;4995180;28;20457;-78
2022/09/01 12:57:30;;;;;;;3.20;1.30;;;20.80;86.00;;;;;;4995160;28;20413;-77
2022/09/01 13:00:19;;;;;;;2.00;1.30;;;21.00;85.30;;;;;;4994737;28;20480;-77
2022/09/01 13:03:12;;;;;;;3.83;1.30;;;20.90;87.40;;;;;;4995311;28;20928;-78
2022/09/01 13:05:43;;;;;;;1.73;0.93;;;20.50;86.80;;;;;;4987203;28;20908;-76
2022/09/01 13:08:17;;;;;;;4.40;1.00;;;20.40;85.60;;;;;;4994864;28;20415;-77
2022/09/01 13:10:45;;;;;;;1.57;1.13;;;20.60;85.60;;;;;;5012676;28;20446;-76
2022/09/01 13:13:13;;;;;;;1.50;1.10;;;20.50;84.90;;;;;;5014966;28;20408;-77
2022/09/01 13:15:44;;;;;;;4.07;1.30;;;20.30;85.10;;;;;;5013903;28;20939;-76
2022/09/01 13:18:09;;;;;;;2.10;1.00;;;20.50;83.60;;;;;;5014473;28;20802;-77
2022/09/01 13:20:35;;;;;;;2.63;1.20;;;21.00;84.20;;;;;;5016880;28;20474;-76
2022/09/01 13:23:01;;;;;;;2.10;1.07;;;21.30;83.20;;;;;;5022147;28;20191;-78
2022/09/01 13:25:27;;;;;;;2.13;1.20;;;20.60;83.50;;;;;;5005118;28;20179;-78
2022/09/01 13:27:53;;;;;;;2.40;1.10;;;20.80;84.50;;;;;;5014833;28;20416;-78
2022/09/01 13:30:21;;;;;;;2.80;1.20;;;20.80;83.40;;;;;;5011659;28;20260;-78
2022/09/01 13:32:47;;;;;;;2.43;1.40;;;21.10;83.80;;;;;;5012410;28;20412;-79
2022/09/01 13:35:16;;;;;;;2.20;1.00;;;21.20;82.60;;;;;;5012476;28;20418;-79
2022/09/01 13:37:41;;;;;;;4.13;1.20;;;21.40;82.10;;;;;;4994971;28;20458;-79
2022/09/01 13:40:14;;;;;;;3.90;1.03;;;21.30;80.60;;;;;;5012125;28;20483;-79
2022/09/01 13:42:45;;;;;;;2.83;1.30;;;22.00;79.00;;;;;;5012549;28;20177;-78
2022/09/01 13:45:12;;;;;;;1.20;1.03;;;22.50;76.20;;;;;;5012782;28;20947;-78
2022/09/01 13:47:41;;;;;;;2.23;1.13;;;22.70;77.50;;;;;;4994603;28;20430;-79
2022/09/01 13:50:09;;;;;;;1.43;0.90;;;22.30;79.70;;;;;;5012127;28;20415;-79
2022/09/01 13:52:35;;;;;;;3.33;1.10;;;22.40;77.40;;;;;;5011961;28;20477;-79
2022/09/01 13:55:00;;;;;;;1.40;1.00;;;22.80;77.30;;;;;;5012316;28;20765;-78
2022/09/01 13:57:26;;;;;;;4.07;1.20;;;23.00;76.90;;;;;;5012683;28;20173;-79
2022/09/01 13:59:51;;;;;;;5.00;1.20;;;22.90;76.30;;;;;;5012223;28;20573;-79
2022/09/01 14:02:17;;;;;;;2.63;1.40;;;23.50;76.10;;;;;;5012443;28;20203;-79
2022/09/01 14:04:42;;;;;;;1.23;1.13;;;23.70;74.90;;;;;;5012314;28;20180;-78
2022/09/01 14:07:08;;;;;;;1.80;1.00;;;23.00;74.30;;;;;;5012233;28;20196;-79
2022/09/01 14:09:33;;;;;;;4.20;1.30;;;23.20;74.80;;;;;;5003350;28;20181;-78
2022/09/01 14:11:59;;;;;;;1.33;0.83;;;23.80;81.00;;;;;;4992508;28;20201;-76
2022/09/01 14:14:24;;;;;;;2.30;1.40;;;23.20;73.60;;;;;;4992357;28;20592;-76
2022/09/01 14:16:50;;;;;;;2.90;1.30;;;22.60;74.80;;;;;;4992628;28;20645;-79
2022/09/01 14:19:16;;;;;;;2.17;1.17;;;23.10;73.20;;;;;;4992129;28;20204;-76
2022/09/01 14:21:43;;;;;;;1.80;1.00;;;22.90;74.70;;;;;;4991965;28;20186;-76
2022/09/01 14:24:08;;;;;;;1.67;1.07;;;22.00;74.70;;;;;;4992170;28;20634;-78
2022/09/01 14:26:34;;;;;;;5.73;1.20;;;22.50;77.50;;;;;;4992101;28;20420;-78
2022/09/01 14:29:01;;;;;;;6.10;1.10;;;22.60;74.70;;;;;;4994827;28;20650;-78
2022/09/01 14:31:28;;;;;;;4.53;1.70;;;22.70;75.40;;;;;;4995587;28;20236;-78
2022/09/01 14:33:53;;;;;;;1.27;0.97;;;23.10;75.20;;;;;;4995640;28;20412;-78
2022/09/01 14:36:22;;;;;;;1.50;1.10;;;22.60;75.20;;;;;;4995502;28;20408;-78
2022/09/01 14:38:49;;;;;;;1.77;1.00;;;22.40;74.40;;;;;;4995381;28;20261;-78
2022/09/01 14:41:19;;;;;;;2.87;1.20;;;22.20;74.70;;;;;;5005876;28;20459;-78
2022/09/01 14:43:45;;;;;;;2.47;1.20;;;22.60;73.10;;;;;;5015216;28;20428;-78
2022/09/01 14:46:11;;;;;;;1.97;1.17;;;22.80;74.50;;;;;;5015020;28;20451;-78
2022/09/01 14:48:38;;;;;;;1.90;1.10;;;22.40;73.60;;;;;;5014761;28;20680;-78
2022/09/01 14:51:05;;;;;;;2.53;1.10;;;22.80;73.70;;;;;;5014745;28;20207;-78
2022/09/01 14:53:30;;;;;;;4.23;1.60;;;23.00;74.00;;;;;;5014834;28;20510;-78
2022/09/01 14:55:58;;;;;;;3.13;1.10;;;23.00;71.60;;;;;;5014914;28;20559;-78
2022/09/01 14:58:25;;;;;;;2.80;1.23;;;23.40;71.20;;;;;;5014686;28;20176;-78
2022/09/01 15:00:54;;;;;;;3.70;1.30;;;23.40;71.70;;;;;;5014706;28;20494;-78
2022/09/01 15:03:20;;;;;;;2.87;1.40;;;22.70;73.60;;;;;;5014586;28;20412;-78
2022/09/01 15:05:45;;;;;;;2.27;1.10;;;22.90;73.30;;;;;;4997082;28;20981;-78
2022/09/01 15:08:11;;;;;;;3.10;1.13;;;22.70;74.00;;;;;;5014280;28;20408;-78
2022/09/01 15:10:36;;;;;;;1.53;1.00;;;22.60;74.40;;;;;;4997189;28;20208;-78
2022/09/01 15:13:03;;;;;;;1.20;1.10;;;23.00;76.10;;;;;;4995213;28;20261;-78
2022/09/01 15:15:29;;;;;;;2.27;1.00;;;23.00;74.20;;;;;;4995059;28;20186;-78
2022/09/01 15:17:55;;;;;;;1.20;1.00;;;22.80;73.70;;;;;;4994532;28;20417;-78
2022/09/01 15:23:23;;;;;;;6.77;1.50;;;22.80;74.10;;;;;;4981882;28;20420;-78
2022/09/01 15:25:51;;;;;;;4.50;1.17;;;23.40;74.20;;;;;;4994915;28;20416;-78
2022/09/01 15:28:17;;;;;;;3.30;1.10;;;23.20;74.80;;;;;;4994747;28;20444;-78
2022/09/01 15:30:44;;;;;;;2.30;1.17;;;22.80;75.40;;;;;;4994712;28;20889;-78
2022/09/01 15:33:10;;;;;;;4.43;1.37;;;23.00;76.30;;;;;;4994732;28;20638;-78
2022/09/01 15:35:35;;;;;;;2.20;1.30;;;23.10;76.90;;;;;;4994575;28;20439;-78
2022/09/01 15:38:01;;;;;;;1.97;1.20;;;22.30;80.10;;;;;;4994095;28;20900;-78
2022/09/01 15:40:27;;;;;;;1.20;1.07;;;22.20;80.50;;;;;;4998451;28;20197;-78
2022/09/01 15:42:54;;;;;;;2.60;1.20;;;21.30;81.60;;;;;;5013803;28;20169;-78
2022/09/01 15:45:21;;;;;;;1.93;1.20;;;20.80;83.00;;;;;;5013881;28;20412;-78
2022/09/01 15:47:47;;;;;;;2.10;1.17;;;20.60;84.00;;;;;;5013729;28;20760;-78
2022/09/01 15:50:15;;;;;;;1.73;1.03;;;20.60;85.30;;;;;;5013469;28;20431;-77
2022/09/01 15:53:07;;;;;;;2.40;1.20;;;20.40;84.40;;;;;;4996111;28;20234;-78
2022/09/01 15:55:44;;;;;;;2.60;1.40;;;19.70;86.00;;;;;;5009724;28;20518;-78
2022/09/01 15:58:11;;;;;;;2.23;1.20;;;19.40;87.20;;;;;;5013425;28;20562;-77
2022/09/01 16:00:38;;;;;;;5.03;1.57;;;19.20;87.80;;;;;;5013515;28;20546;-78
2022/09/01 16:03:03;;;;;;;2.03;1.20;;;19.00;88.60;;;;;;5005531;28;20420;-78
2022/09/01 16:05:31;;;;;;;1.83;1.10;;;18.90;89.10;;;;;;5009091;28;20424;-78
2022/09/01 16:08:00;;;;;;;2.73;1.10;;;18.90;88.70;;;;;;5013416;28;20188;-78
2022/09/01 16:10:26;;;;;;;1.53;1.03;;;18.70;89.60;;;;;;4997611;28;20460;-77
2022/09/01 16:12:51;;;;;;;1.40;1.00;;;18.70;89.30;;;;;;5001477;28;20427;-77
2022/09/01 16:15:21;;;;;;;3.13;1.37;;;18.50;90.10;;;;;;5012835;28;20416;-77
2022/09/01 16:18:01;;;;;;;3.23;1.30;;;18.60;90.30;;;;;;5012832;28;20585;-77
2022/09/01 16:20:45;;;;;;;2.60;1.10;;;18.60;90.30;;;;;;5010826;28;20456;-77
2022/09/01 16:23:16;;;;;;;3.40;1.30;;;18.40;91.30;;;;;;5013181;28;20408;-77
2022/09/01 16:25:42;;;;;;;6.00;2.00;;;18.40;92.00;;;;;;5010314;28;20451;-77
2022/09/01 16:28:26;;;;;;;3.00;1.70;;;18.40;92.30;;;;;;5011748;28;20932;-76
2022/09/01 16:30:56;;;;;;;1.83;1.10;;;18.40;92.30;;;;;;4995626;28;20207;-77
2022/09/01 16:33:22;;;;;;;1.77;1.10;;;18.40;92.40;;;;;;5013002;28;20507;-77
2022/09/01 16:36:24;;;;;;;2.13;1.10;;;18.30;93.10;;;;;;5014114;28;20510;-79
2022/09/01 16:39:11;;;;;;;2.20;1.23;;;18.20;93.50;;;;;;5014297;28;20652;-78
2022/09/01 16:42:16;;;;;;;4.23;1.30;;;18.20;93.90;;;;;;5014079;28;20455;-79
2022/09/01 16:45:00;;;;;;;4.50;1.33;;;18.20;94.50;;;;;;4956227;28;20474;-78
2022/09/01 16:47:53;;;;;;;1.43;1.10;;;18.00;94.30;;;;;;4993064;28;20393;-78
2022/09/01 16:50:26;;;;;;;2.80;1.20;;;18.00;95.50;;;;;;4993511;28;20428;-78
2022/09/01 16:52:52;;;;;;;2.00;1.33;;;18.00;94.90;;;;;;4993945;28;20424;-79
2022/09/01 16:55:23;;;;;;;3.17;1.00;;;17.90;94.70;;;;;;4993571;28;20409;-78
2022/09/01 16:58:13;;;;;;;1.10;1.00;;;17.90;95.10;;;;;;4994035;28;20248;-78
2022/09/01 17:00:45;;;;;;;2.07;1.17;;;17.80;94.90;;;;;;4977533;28;20523;-78
2022/09/01 17:03:22;;;;;;;1.00;0.90;;;17.70;94.40;;;;;;4993983;28;20405;-78
2022/09/01 17:06:14;;;;;;;4.10;1.13;;;17.60;93.70;;;;;;4993544;28;20385;-79
2022/09/01 17:08:54;;;;;;;2.60;1.20;;;17.60;93.80;;;;;;4984888;28;20424;-78
2022/09/01 17:11:45;;;;;;;2.33;0.90;;;17.50;92.70;;;;;;4994559;28;20443;-78
2022/09/01 17:14:24;;;;;;;1.67;1.07;;;17.50;92.10;;;;;;5007802;28;20420;-78